createdAt,value
2022-08-22T00:01:26.579Z,56.09
2022-08-22T00:02:43.019Z,57.52
2022-08-22T00:03:04.651Z,58.06
2022-08-22T00:03:10.556Z,55.62
2022-08-22T00:04:04.306Z,56.16
2022-08-22T00:06:30.775Z,56.22
2022-08-22T00:09:03.354Z,56.26
2022-08-22T00:11:29.873Z,56.17
2022-08-22T00:14:14.506Z,55.98
2022-08-22T00:16:46.489Z,56.09
2022-08-22T00:19:31.776Z,56.05
2022-08-22T00:22:19.642Z,55.78
2022-08-22T00:24:58.155Z,55.84
2022-08-22T00:27:35.897Z,55.86
2022-08-22T00:30:05.716Z,55.99
2022-08-22T00:32:41.407Z,55.92
2022-08-22T00:35:24.601Z,56.03
2022-08-22T00:38:00.272Z,55.91
2022-08-22T00:40:48.990Z,55.60
2022-08-22T00:43:43.629Z,55.88
2022-08-22T00:46:28.972Z,55.76
2022-08-22T00:48:55.456Z,55.97
2022-08-22T00:51:49.937Z,56.00
2022-08-22T00:54:28.773Z,55.96
2022-08-22T00:57:22.417Z,56.07
2022-08-22T00:59:55.647Z,55.78
2022-08-22T01:02:41.131Z,55.41
2022-08-22T01:05:17.619Z,55.74
2022-08-22T01:07:56.426Z,55.71
2022-08-22T01:11:00.695Z,55.74
2022-08-22T01:14:08.137Z,55.46
2022-08-22T01:16:34.697Z,55.03
2022-08-22T01:19:06.849Z,55.14
2022-08-22T01:21:45.521Z,55.10
2022-08-22T01:24:37.875Z,55.38
2022-08-22T01:27:34.803Z,55.43
2022-08-22T01:30:34.374Z,55.54
2022-08-22T01:33:57.940Z,55.71
2022-08-22T01:36:33.359Z,55.38
2022-08-22T01:39:01.742Z,55.48
2022-08-22T01:41:28.207Z,55.51
2022-08-22T01:44:07.015Z,55.57
2022-08-22T01:46:45.655Z,55.40
2022-08-22T01:49:20.973Z,55.84
2022-08-22T01:51:52.674Z,55.75
2022-08-22T01:54:51.999Z,55.68
2022-08-22T01:57:19.261Z,55.85
2022-08-22T01:59:54.543Z,56.03
2022-08-22T02:02:40.011Z,55.56
2022-08-22T02:05:13.283Z,55.29
2022-08-22T02:07:39.790Z,55.31
2022-08-22T02:10:27.632Z,55.20
2022-08-22T02:13:05.117Z,55.30
2022-08-22T02:15:40.938Z,55.07
2022-08-22T02:18:08.990Z,55.08
2022-08-22T02:20:41.196Z,55.28
2022-08-22T02:23:07.703Z,54.85
2022-08-22T02:25:46.549Z,55.17
2022-08-22T02:28:16.243Z,54.87
2022-08-22T02:30:50.136Z,54.59
2022-08-22T02:33:30.992Z,54.99
2022-08-22T02:36:04.708Z,54.97
2022-08-22T02:38:40.436Z,54.89
2022-08-22T02:41:23.993Z,54.93
2022-08-22T02:43:56.920Z,55.03
2022-08-22T02:46:32.941Z,55.31
2022-08-22T02:49:43.725Z,55.38
2022-08-22T02:52:13.419Z,55.64
2022-08-22T02:55:04.747Z,54.99
2022-08-22T02:57:53.891Z,55.25
2022-08-22T03:00:31.425Z,55.06
2022-08-22T03:02:59.695Z,55.06
2022-08-22T03:05:26.328Z,55.04
2022-08-22T03:08:17.599Z,55.05
2022-08-22T03:10:54.577Z,55.07
2022-08-22T03:13:52.555Z,55.21
2022-08-22T03:16:24.455Z,54.82
2022-08-22T03:19:08.530Z,55.12
2022-08-22T03:22:01.270Z,54.96
2022-08-22T03:24:36.845Z,54.67
2022-08-22T03:27:11.803Z,55.09
2022-08-22T03:29:41.853Z,54.73
2022-08-22T03:32:17.016Z,54.86
2022-08-22T03:35:00.457Z,54.51
2022-08-22T03:37:32.161Z,54.63
2022-08-22T03:40:23.682Z,54.44
2022-08-22T03:43:10.533Z,54.49
2022-08-22T03:45:38.552Z,54.67
2022-08-22T03:48:24.913Z,54.59
2022-08-22T03:51:09.793Z,54.25
2022-08-22T03:53:44.118Z,54.42
2022-08-22T03:56:29.550Z,54.77
2022-08-22T03:59:20.572Z,54.94
2022-08-22T04:02:01.480Z,55.11
2022-08-22T04:04:33.869Z,54.89
2022-08-22T04:07:28.146Z,55.00
2022-08-22T04:10:32.600Z,55.42
2022-08-22T04:13:44.226Z,55.24
2022-08-22T04:16:20.515Z,55.53
2022-08-22T04:18:59.417Z,54.98
2022-08-22T04:21:36.070Z,55.05
2022-08-22T04:24:17.910Z,55.11
2022-08-22T04:27:10.623Z,54.72
2022-08-22T04:29:49.844Z,55.25
2022-08-22T04:32:34.289Z,54.80
2022-08-22T04:35:16.287Z,54.50
2022-08-22T04:37:56.448Z,55.15
2022-08-22T04:40:35.508Z,54.98
2022-08-22T04:43:09.362Z,55.55
2022-08-22T04:45:52.546Z,55.19
2022-08-22T04:48:28.299Z,54.57
2022-08-22T04:51:13.099Z,54.76
2022-08-22T04:53:48.790Z,54.74
2022-08-22T04:56:56.982Z,55.00
2022-08-22T04:59:24.039Z,54.36
2022-08-22T05:01:55.062Z,55.03
2022-08-22T05:04:26.228Z,54.51
2022-08-22T05:07:14.882Z,54.13
2022-08-22T05:09:44.082Z,54.34
2022-08-22T05:12:12.104Z,54.37
2022-08-22T05:14:54.444Z,54.22
2022-08-22T05:17:23.304Z,53.99
2022-08-22T05:19:51.892Z,54.10
2022-08-22T05:22:21.770Z,53.86
2022-08-22T05:24:49.651Z,54.09
2022-08-22T05:27:21.538Z,54.29
2022-08-22T05:29:49.688Z,54.57
2022-08-22T05:32:21.628Z,53.93
2022-08-22T05:34:48.370Z,54.42
2022-08-22T05:37:24.199Z,53.80
2022-08-22T05:39:54.916Z,54.13
2022-08-22T05:42:34.887Z,53.25
2022-08-22T05:45:01.891Z,53.92
2022-08-22T05:47:41.006Z,53.24
2022-08-22T05:50:23.912Z,52.84
2022-08-22T05:53:06.344Z,53.04
2022-08-22T05:55:54.479Z,53.82
2022-08-22T05:58:50.372Z,53.24
2022-08-22T06:01:29.226Z,53.10
2022-08-22T06:04:34.102Z,52.99
2022-08-22T06:07:13.099Z,53.17
2022-08-22T06:10:01.677Z,52.26
2022-08-22T06:12:44.595Z,52.00
2022-08-22T06:15:20.907Z,51.75
2022-08-22T06:17:49.379Z,51.94
2022-08-22T06:20:25.875Z,50.98
2022-08-22T06:22:57.640Z,51.24
2022-08-22T06:25:32.727Z,51.18
2022-08-22T06:28:01.815Z,50.83
2022-08-22T06:30:28.651Z,50.81
2022-08-22T06:32:59.820Z,50.68
2022-08-22T06:35:55.410Z,50.89
2022-08-22T06:38:26.819Z,50.81
2022-08-22T06:40:54.388Z,46.53
2022-08-22T06:43:22.619Z,44.57
2022-08-22T06:45:49.238Z,45.17
2022-08-22T06:48:20.363Z,43.34
2022-08-22T06:50:56.167Z,41.79
2022-08-22T06:53:28.396Z,43.16
2022-08-22T06:55:57.757Z,43.63
2022-08-22T06:58:30.973Z,45.74
2022-08-22T07:01:11.748Z,45.58
2022-08-22T07:04:11.196Z,45.73
2022-08-22T07:06:47.370Z,45.73
2022-08-22T07:09:24.737Z,44.84
2022-08-22T07:11:59.854Z,45.28
2022-08-22T07:14:29.688Z,44.72
2022-08-22T07:17:04.413Z,45.52
2022-08-22T07:19:39.394Z,45.41
2022-08-22T07:22:17.135Z,45.51
2022-08-22T07:24:47.746Z,46.11
2022-08-22T07:27:25.862Z,46.38
2022-08-22T07:30:01.598Z,47.22
2022-08-22T07:32:41.900Z,47.55
2022-08-22T07:35:13.827Z,47.92
2022-08-22T07:37:45.323Z,47.97
2022-08-22T07:40:21.031Z,48.45
2022-08-22T07:43:24.924Z,47.93
2022-08-22T07:46:20.993Z,49.06
2022-08-22T07:49:08.531Z,48.96
2022-08-22T07:51:45.821Z,49.06
2022-08-22T07:54:22.283Z,48.93
2022-08-22T08:26:01.933Z,47.89
2022-08-22T08:28:34.336Z,46.95
2022-08-22T08:31:14.798Z,46.69
2022-08-22T08:33:42.632Z,45.86
2022-08-22T08:36:13.234Z,45.96
2022-08-22T08:38:48.276Z,45.63
2022-08-22T08:41:23.876Z,45.63
2022-08-22T08:43:50.938Z,45.51
2022-08-22T08:46:36.003Z,44.69
2022-08-22T08:49:11.338Z,43.92
2022-08-22T08:52:01.231Z,43.88
2022-08-22T08:54:55.507Z,43.63
2022-08-22T08:57:46.873Z,43.38
2022-08-22T09:00:17.976Z,43.43
2022-08-22T09:03:31.145Z,42.59
2022-08-22T09:06:42.658Z,42.49
2022-08-22T09:09:44.680Z,42.05
2022-08-22T09:12:33.746Z,41.27
2022-08-22T09:15:15.612Z,40.94
2022-08-22T09:18:00.691Z,39.99
2022-08-22T09:20:46.328Z,39.90
2022-08-22T09:23:41.283Z,40.01
2022-08-22T09:26:40.183Z,40.97
2022-08-22T09:29:12.654Z,40.22
2022-08-22T09:32:00.314Z,40.88
2022-08-22T09:34:37.204Z,41.14
2022-08-22T09:37:09.077Z,40.18
2022-08-22T09:39:49.430Z,40.67
2022-08-22T09:42:36.063Z,41.43
2022-08-22T09:45:11.824Z,42.14
2022-08-22T09:47:47.584Z,42.43
2022-08-22T09:50:39.776Z,43.51
2022-08-22T09:53:21.601Z,43.45
2022-08-22T10:32:14.442Z,42.00
2022-08-22T10:34:44.563Z,42.63
2022-08-22T10:37:36.803Z,42.01
2022-08-22T10:40:24.523Z,42.31
2022-08-22T10:43:16.077Z,41.61
2022-08-22T11:07:44.584Z,38.20
2022-08-22T11:10:41.869Z,37.08
2022-08-22T11:13:27.292Z,37.53
2022-08-22T11:16:04.397Z,37.78
2022-08-22T11:19:02.050Z,37.60
2022-08-22T11:22:05.967Z,37.45
2022-08-22T11:25:04.618Z,37.67
2022-08-22T11:27:38.429Z,37.32
2022-08-22T11:30:09.960Z,37.14
2022-08-22T11:33:03.369Z,36.64
2022-08-22T11:36:09.582Z,35.95
2022-08-22T11:39:13.712Z,34.93
2022-08-22T12:57:52.814Z,38.68
2022-08-22T13:00:41.696Z,38.04
2022-08-22T13:03:12.177Z,38.70
2022-08-22T13:05:40.823Z,38.63
2022-08-22T13:08:13.775Z,39.50
2022-08-22T13:10:49.935Z,40.10
2022-08-22T13:13:38.861Z,40.68
2022-08-22T13:16:11.563Z,43.36
2022-08-22T13:18:53.988Z,44.18
2022-08-22T13:21:23.754Z,44.52
2022-08-22T13:23:54.692Z,45.38
2022-08-22T13:26:31.639Z,44.89
2022-08-22T13:29:24.474Z,44.90
2022-08-22T13:32:00.355Z,44.24
2022-08-22T13:34:48.179Z,43.77
2022-08-22T13:37:24.614Z,44.40
2022-08-22T13:39:52.850Z,43.84
2022-08-22T13:42:30.938Z,44.91
2022-08-22T13:44:59.569Z,44.35
2022-08-22T13:47:31.615Z,43.56
2022-08-22T13:50:07.687Z,43.55
2022-08-22T13:52:58.275Z,43.28
2022-08-22T13:55:34.088Z,44.71
2022-08-22T13:58:34.187Z,44.50
2022-08-22T14:01:09.981Z,44.08
2022-08-22T14:04:00.839Z,44.33
2022-08-22T14:06:47.755Z,43.96
2022-08-22T14:09:36.496Z,43.88
2022-08-22T14:12:13.681Z,43.89
2022-08-22T14:14:45.854Z,44.07
2022-08-22T14:17:20.834Z,43.92
2022-08-22T14:19:59.485Z,44.33
2022-08-22T14:22:31.815Z,44.31
2022-08-22T14:25:01.452Z,45.20
2022-08-22T14:27:33.409Z,46.64
2022-08-22T14:30:15.266Z,46.76
2022-08-22T14:32:47.348Z,48.54
2022-08-22T14:35:21.615Z,49.41
2022-08-22T14:37:52.832Z,48.75
2022-08-22T14:40:24.861Z,50.33
2022-08-22T14:43:24.616Z,49.50
2022-08-22T14:45:57.368Z,49.56
2022-08-22T14:49:05.203Z,48.15
2022-08-22T14:51:31.853Z,48.16
2022-08-22T14:54:21.682Z,48.54
2022-08-22T14:56:48.886Z,48.92
2022-08-22T14:59:38.928Z,48.62
2022-08-22T15:02:07.038Z,48.53
2022-08-22T15:04:39.851Z,48.21
2022-08-22T15:07:06.562Z,47.77
2022-08-22T15:09:50.496Z,47.55
2022-08-22T15:12:32.194Z,48.04
2022-08-22T15:15:00.479Z,47.70
2022-08-22T15:17:44.152Z,48.16
2022-08-22T15:20:49.360Z,49.15
2022-08-22T15:23:23.076Z,48.41
2022-08-22T15:26:04.173Z,47.59
2022-08-22T15:28:44.960Z,46.86
2022-08-22T15:31:18.640Z,47.46
2022-08-22T15:33:46.476Z,48.29
2022-08-22T15:36:15.894Z,47.59
2022-08-22T15:38:48.316Z,48.15
2022-08-22T15:41:41.805Z,48.16
2022-08-22T15:44:32.536Z,47.74
2022-08-22T15:47:01.611Z,48.16
2022-08-22T15:49:29.633Z,47.78
2022-08-22T15:52:03.591Z,48.40
2022-08-22T15:54:54.641Z,48.83
2022-08-22T15:57:35.101Z,48.26
2022-08-22T16:00:12.091Z,49.94
2022-08-22T16:02:41.782Z,49.52
2022-08-22T16:05:11.502Z,49.38
2022-08-22T16:08:08.973Z,48.89
2022-08-22T16:10:40.267Z,49.55
2022-08-22T16:13:13.211Z,48.67
2022-08-22T16:16:06.982Z,48.31
2022-08-22T16:18:33.546Z,48.96
2022-08-22T16:21:08.172Z,48.78
2022-08-22T16:23:50.003Z,49.11
2022-08-22T16:26:31.876Z,49.24
2022-08-22T16:29:13.636Z,49.56
2022-08-22T16:31:43.913Z,48.75
2022-08-22T16:34:16.700Z,49.19
2022-08-22T16:36:52.543Z,49.02
2022-08-22T16:39:22.118Z,49.20
2022-08-22T16:41:52.983Z,49.17
2022-08-22T16:44:28.861Z,48.44
2022-08-22T16:47:07.522Z,48.81
2022-08-22T16:49:35.818Z,49.12
2022-08-22T16:52:23.894Z,49.66
2022-08-22T16:54:55.489Z,49.43
2022-08-22T16:57:22.632Z,49.63
2022-08-22T17:00:24.177Z,50.43
2022-08-22T17:03:12.824Z,50.51
2022-08-22T17:05:51.619Z,49.85
2022-08-22T17:08:39.624Z,50.13
2022-08-22T17:11:06.286Z,50.07
2022-08-22T17:13:50.618Z,49.57
2022-08-22T17:16:42.038Z,49.84
2022-08-22T17:19:17.604Z,49.72
2022-08-22T17:21:54.112Z,50.14
2022-08-22T17:24:47.396Z,50.40
2022-08-22T17:27:13.929Z,50.24
2022-08-22T17:30:14.155Z,50.44
2022-08-22T17:33:27.828Z,51.02
2022-08-22T17:36:26.634Z,51.01
2022-08-22T17:38:59.739Z,52.03
2022-08-22T17:41:37.378Z,51.65
2022-08-22T17:44:16.010Z,51.50
2022-08-22T17:47:18.525Z,51.78
2022-08-22T17:49:51.828Z,51.50
2022-08-22T17:52:49.764Z,51.38
2022-08-22T17:55:18.469Z,51.43
2022-08-22T17:57:57.937Z,51.41
2022-08-22T18:00:35.527Z,51.54
2022-08-22T18:03:08.821Z,52.16
2022-08-22T18:05:59.944Z,51.44
2022-08-22T18:11:58.027Z,51.13
2022-08-22T18:14:27.721Z,51.16
2022-08-22T18:16:55.390Z,51.10
2022-08-22T18:19:45.483Z,51.42
2022-08-22T18:22:45.752Z,51.64
2022-08-22T18:25:18.371Z,52.11
2022-08-22T18:27:53.893Z,52.03
2022-08-22T18:30:28.487Z,52.08
2022-08-22T18:33:07.284Z,52.28
2022-08-22T18:35:39.397Z,52.41
2022-08-22T18:38:23.282Z,52.59
2022-08-22T18:41:07.306Z,52.43
2022-08-22T18:43:36.795Z,52.59
2022-08-22T18:46:24.636Z,52.50
2022-08-22T18:49:14.086Z,52.20
2022-08-22T18:51:38.892Z,52.40
2022-08-22T18:54:05.421Z,52.10
2022-08-22T18:56:33.131Z,52.16
2022-08-22T18:59:05.327Z,52.29
2022-08-22T19:02:02.591Z,52.01
2022-08-22T19:04:35.101Z,52.06
2022-08-22T19:07:04.704Z,52.30
2022-08-22T19:09:49.311Z,52.20
2022-08-22T19:12:16.088Z,52.32
2022-08-22T19:14:51.558Z,52.66
2022-08-22T19:17:24.080Z,52.80
2022-08-22T19:20:19.980Z,52.89
2022-08-22T19:22:51.080Z,52.73
2022-08-22T19:25:26.449Z,52.70
2022-08-22T19:28:11.491Z,53.03
2022-08-22T19:30:51.917Z,52.95
2022-08-22T19:33:34.895Z,53.08
2022-08-22T19:36:13.134Z,53.42
2022-08-22T19:39:04.362Z,54.03
2022-08-22T19:41:53.322Z,54.01
2022-08-22T19:44:19.771Z,53.95
2022-08-22T19:46:48.685Z,54.17
2022-08-22T19:49:29.370Z,54.00
2022-08-22T19:52:12.805Z,54.24
2022-08-22T19:54:52.029Z,54.31
2022-08-22T19:57:48.529Z,54.00
2022-08-22T20:00:38.935Z,54.84
2022-08-22T20:03:31.077Z,54.66
2022-08-22T20:06:13.735Z,55.27
2022-08-22T20:09:00.821Z,55.38
2022-08-22T20:11:59.812Z,55.39
2022-08-22T20:14:30.666Z,55.48
2022-08-22T20:16:58.189Z,55.50
2022-08-22T20:22:48.923Z,55.53
2022-08-22T20:25:46.978Z,55.19
2022-08-22T20:28:38.828Z,55.91
2022-08-22T20:31:09.783Z,55.99
2022-08-22T20:33:38.762Z,55.92
2022-08-22T20:36:27.094Z,56.13
2022-08-22T20:38:56.245Z,56.08
2022-08-22T20:41:31.857Z,56.06
2022-08-22T20:44:04.753Z,55.83
2022-08-22T20:47:00.383Z,55.70
2022-08-22T20:49:29.997Z,55.95
2022-08-22T20:52:29.299Z,55.92
2022-08-22T20:55:04.910Z,56.46
2022-08-22T20:57:31.938Z,56.51
2022-08-22T20:59:59.765Z,56.20
2022-08-22T21:02:38.853Z,56.31
2022-08-22T21:05:06.867Z,55.97
2022-08-22T21:07:34.241Z,56.28
2022-08-22T21:10:26.661Z,56.00
2022-08-22T21:13:01.276Z,55.68
2022-08-22T21:15:32.737Z,55.49
2022-08-22T21:17:59.494Z,55.86
2022-08-22T21:20:31.204Z,55.52
2022-08-22T21:23:08.850Z,55.42
2022-08-22T21:25:51.116Z,55.66
2022-08-22T21:28:32.227Z,55.54
2022-08-22T21:30:59.378Z,55.33
2022-08-22T21:33:26.019Z,55.30
2022-08-22T21:35:56.102Z,55.73
2022-08-22T21:38:22.686Z,55.49
2022-08-22T21:40:49.100Z,55.61
2022-08-22T21:43:29.047Z,55.43
2022-08-22T21:45:55.641Z,55.50
2022-08-22T21:48:31.107Z,55.63
2022-08-22T21:51:17.633Z,55.32
2022-08-22T21:53:44.233Z,55.34
2022-08-22T21:56:13.288Z,55.19
2022-08-22T21:58:40.071Z,55.17
2022-08-22T22:01:27.935Z,55.24
2022-08-22T22:03:54.769Z,55.60
2022-08-22T22:06:21.379Z,55.42
2022-08-22T22:08:48.922Z,55.83
2022-08-22T22:11:15.866Z,55.50
2022-08-22T22:13:42.546Z,55.15
2022-08-22T22:16:09.253Z,55.09
2022-08-22T22:18:36.036Z,55.03
2022-08-22T22:21:02.718Z,54.55
2022-08-22T22:23:29.321Z,55.11
2022-08-22T22:25:57.063Z,55.08
2022-08-22T22:28:25.047Z,55.30
2022-08-22T22:30:53.334Z,54.90
2022-08-22T22:33:20.816Z,54.97
2022-08-22T22:35:47.458Z,55.10
2022-08-22T22:38:13.891Z,55.18
2022-08-22T22:40:41.524Z,55.30
2022-08-22T22:43:10.208Z,55.34
2022-08-22T22:45:37.296Z,55.00
2022-08-22T22:48:04.281Z,55.25
2022-08-22T22:50:30.899Z,55.11
2022-08-22T22:52:57.351Z,55.16
2022-08-22T22:55:25.230Z,55.49
2022-08-22T22:57:58.540Z,55.05
2022-08-22T23:00:29.730Z,55.01
2022-08-22T23:02:59.468Z,55.36
2022-08-22T23:05:26.069Z,55.23
2022-08-22T23:07:52.510Z,55.30
2022-08-22T23:10:22.048Z,55.29
2022-08-22T23:12:48.994Z,55.29
2022-08-22T23:15:15.639Z,55.15
2022-08-22T23:17:42.602Z,55.64
2022-08-22T23:20:09.514Z,55.31
2022-08-22T23:22:36.132Z,55.41
2022-08-22T23:25:02.611Z,55.09
2022-08-22T23:27:29.212Z,55.16
2022-08-22T23:29:55.655Z,54.80
2022-08-22T23:32:22.278Z,54.94
2022-08-22T23:34:51.223Z,55.01
2022-08-22T23:37:19.908Z,55.19
2022-08-22T23:39:46.706Z,55.64
2022-08-22T23:42:14.407Z,56.02
2022-08-22T23:44:41.663Z,56.30
2022-08-22T23:47:09.138Z,56.23
2022-08-22T23:49:36.250Z,56.40
2022-08-22T23:52:03.411Z,56.43
2022-08-22T23:54:30.163Z,56.53
2022-08-22T23:56:58.511Z,56.72
2022-08-22T23:59:30.680Z,56.86
